Hovedside
METAR-TAF:

METAR-TAF

Lufthavner :

Linköping, Sverige

Linköping lufthavn

breddegrad: 58-24N, lengdegrad: 015-41E, høyde over havet: 52 m

Gjeldene værobservasjon

Denne rapporten ble laget for 1 time og 8 minutter siden, klokken 09:50 UTC
Vind 9 kt fra Vest
Temperatur 9°C
Luftfuktighet 37%
Trykk 1008 hPa
Få skyer i en høyde av 6100 ft, Bygeskyer.

METAR: ESSL 270950Z 27009KT FEW061CB 09/M05 Q1008

Tid: 12:58 (10:58 UTC)

Varsel

Denne rapporten ble laget for 2 timer og 28 minutter siden, klokken 08:30 UTC
Varsel gyldig fra 27. klokken 09 UTC til 27. klokken 18 UTC
Vind 10 kt fra Vest-sørvest
Sikt 10 km eller mer
Få skyer i en høyde av 3000 ft
Midlertidig
fra 27. klokken 11 UTC til 27. klokken 18 UTC
Vind 10 kt fra skiftende retning med vindkast opp mot 20 kt
Sikt: 5000 m
Brutte skyer i en høyde av 4000 ft, Bygeskyer.
byger, lett hagl eller graupel

TAF: ESSL 270830Z 2709/2718 25010KT 9999 FEW030 TEMPO 2711/2718 VRB10G20KT 5000 SHGS BKN040CB RMK MIL

Værobservasjoner og værvarsel for over 4000 flyplasser (METAR- og TAF-rapporter).

Tilgjengelige stasjoner er representert av de røde og gule prikkene på kartet.

Hold musepekeren over prikken for å se navnet på stasjonen.

Klikk så for å se værobservasjoner og -varsler.

For å forandre kartet kan du klikke på den grønne knappen med svart kryss for å zoome inn, på den grønne knappen med strek for å zoome ut, eller på de grønne pilene for å se tilstøtende kart.


METAR-TAF: